Time;durP1;ratioP1;P1;durP2;ratioP2;P2;SDS_P1;SDS_P2;PMS_P1;PMS_P2;Temp;Humidity;BMP_temperature;BMP_pressure;BME280_temperature;BME280_humidity;BME280_pressure;Samples;Min_cycle;Max_cycle;Signal;HPM_P1;HPM_P2
2023/11/30 00:05:06;;;;;;;37.40;20.40;;;;;;;-4.35;85.28;98694.35;220444;1254;140495;-66
2023/11/30 00:10:11;;;;;;;28.00;11.00;;;;;;;-4.24;85.19;98690.31;219838;1254;139937;-67
2023/11/30 00:15:15;;;;;;;35.00;19.80;;;;;;;-4.15;85.07;98686.42;219458;1254;139805;-67
2023/11/30 00:20:20;;;;;;;31.30;13.40;;;;;;;-4.06;85.23;98683.06;218598;1255;141382;-67
2023/11/30 00:25:27;;;;;;;39.20;17.80;;;;;;;-4.00;85.17;98674.91;219270;1254;141429;-66
2023/11/30 00:30:31;;;;;;;22.90;12.40;;;;;;;-3.96;84.99;98673.94;218241;1259;140504;-67
2023/11/30 00:35:36;;;;;;;32.80;15.80;;;;;;;-3.92;85.12;98676.64;219513;1255;139930;-66
2023/11/30 00:40:42;;;;;;;38.20;17.80;;;;;;;-3.88;85.17;98677.39;218944;1253;140215;-66
2023/11/30 00:45:47;;;;;;;31.60;15.90;;;;;;;-3.82;85.36;98678.77;219462;1254;142233;-66
2023/11/30 00:51:11;;;;;;;27.20;15.30;;;;;;;-3.76;85.34;98679.63;218851;1253;140185;-67
2023/11/30 00:56:17;;;;;;;32.10;16.50;;;;;;;-3.67;85.35;98680.50;218197;1253;140091;-68
2023/11/30 01:01:23;;;;;;;37.20;15.80;;;;;;;-3.60;85.49;98683.09;218569;1256;142231;-65
2023/11/30 01:06:28;;;;;;;28.40;15.90;;;;;;;-3.55;85.50;98680.11;218838;1253;140068;-66
2023/11/30 01:11:34;;;;;;;68.00;28.30;;;;;;;-3.50;85.68;98676.58;218634;1257;140880;-66
2023/11/30 01:16:42;;;;;;;451.60;171.40;;;;;;;-3.44;85.63;98674.52;219077;1253;140196;-68
2023/11/30 01:21:48;;;;;;;55.70;25.00;;;;;;;-3.40;85.94;98670.64;219295;1257;140906;-67
2023/11/30 01:26:52;;;;;;;37.60;20.50;;;;;;;-3.36;86.12;98671.09;219070;1254;142601;-66
2023/11/30 01:31:58;;;;;;;30.20;16.20;;;;;;;-3.33;86.15;98670.61;219954;1253;139935;-67
2023/11/30 01:37:02;;;;;;;19.80;11.30;;;;;;;-3.32;86.42;98666.92;220496;1254;140235;-66
2023/11/30 01:42:07;;;;;;;28.00;13.30;;;;;;;-3.29;86.45;98666.45;220720;1253;140794;-67
2023/11/30 01:47:12;;;;;;;28.00;14.90;;;;;;;-3.28;86.66;98665.98;219583;1253;140194;-69
2023/11/30 01:52:18;;;;;;;28.90;16.70;;;;;;;-3.24;86.78;98667.88;219249;1253;140266;-69
2023/11/30 01:57:23;;;;;;;29.60;16.20;;;;;;;-3.20;86.81;98662.62;220461;1253;140773;-67
2023/11/30 02:02:29;;;;;;;24.10;14.50;;;;;;;-3.15;87.00;98663.98;218477;1256;141002;-65
2023/11/30 02:07:35;;;;;;;25.50;13.40;;;;;;;-3.13;86.97;98660.63;219519;1253;140736;-66
2023/11/30 02:12:39;;;;;;;30.20;15.40;;;;;;;-3.13;87.06;98656.48;218787;1257;140222;-66
2023/11/30 02:17:45;;;;;;;27.90;15.30;;;;;;;-3.15;87.13;98658.23;218966;1256;141543;-65
2023/11/30 02:22:50;;;;;;;29.10;16.10;;;;;;;-3.18;86.87;98652.70;219513;1256;141375;-65
2023/11/30 02:27:58;;;;;;;25.10;13.70;;;;;;;-3.20;86.96;98659.46;218588;1257;141331;-66
2023/11/30 02:33:04;;;;;;;24.40;13.20;;;;;;;-3.21;86.93;98654.73;219260;1256;140389;-65
2023/11/30 02:38:09;;;;;;;25.50;14.50;;;;;;;-3.23;87.08;98656.94;219877;1253;140977;-67
2023/11/30 02:43:14;;;;;;;28.30;14.50;;;;;;;-3.23;87.23;98659.19;218771;1253;140382;-70
2023/11/30 02:48:18;;;;;;;27.90;14.60;;;;;;;-3.22;87.33;98663.05;218491;1253;141297;-66
2023/11/30 02:53:23;;;;;;;22.90;12.80;;;;;;;-3.20;87.60;98660.09;218652;1257;140038;-68
2023/11/30 02:58:29;;;;;;;93.60;35.20;;;;;;;-3.19;87.38;98655.45;218109;1257;140740;-67
2023/11/30 03:03:35;;;;;;;64.50;27.80;;;;;;;-3.17;87.64;98653.09;218857;1253;140763;-68
2023/11/30 03:08:39;;;;;;;43.90;19.00;;;;;;;-3.17;87.49;98646.95;219783;1253;141188;-68
2023/11/30 03:13:44;;;;;;;33.50;17.90;;;;;;;-3.16;87.68;98643.73;219212;1257;140390;-68
2023/11/30 03:18:49;;;;;;;32.40;19.70;;;;;;;-3.14;87.63;98639.36;219721;1254;140418;-68
2023/11/30 03:24:10;;;;;;;24.60;15.40;;;;;;;-3.10;87.75;98638.18;218849;1253;142447;-67
2023/11/30 03:29:16;;;;;;;23.60;13.10;;;;;;;-3.07;87.73;98637.23;219528;1253;141059;-68
2023/11/30 03:34:21;;;;;;;25.30;12.90;;;;;;;-3.06;87.68;98641.02;219317;1253;140264;-68
2023/11/30 03:39:25;;;;;;;22.70;14.60;;;;;;;-3.09;87.47;98642.77;221136;1253;140759;-68
2023/11/30 03:44:29;;;;;;;24.20;13.70;;;;;;;-3.07;87.77;98650.64;219399;1253;140611;-67
2023/11/30 03:49:34;;;;;;;18.90;11.30;;;;;;;-3.00;87.94;98654.63;220939;1253;141635;-68
2023/11/30 03:54:40;;;;;;;21.70;13.30;;;;;;;-2.96;87.74;98662.52;220002;1253;141071;-69
2023/11/30 03:59:46;;;;;;;13.20;7.10;;;;;;;-2.92;87.73;98660.27;220961;1253;140051;-68
2023/11/30 04:04:50;;;;;;;19.10;10.30;;;;;;;-2.90;87.48;98660.25;220148;1253;140200;-67
2023/11/30 04:09:55;;;;;;;18.90;11.60;;;;;;;-2.88;87.51;98660.89;219459;1257;140592;-67
2023/11/30 04:15:02;;;;;;;18.80;11.30;;;;;;;-2.83;87.77;98658.12;219568;1253;141250;-67
2023/11/30 04:20:08;;;;;;;24.40;13.70;;;;;;;-2.77;87.89;98653.20;219379;1253;140664;-67
2023/11/30 04:25:12;;;;;;;22.60;12.60;;;;;;;-2.72;87.88;98653.15;219533;1253;140521;-68
2023/11/30 04:30:17;;;;;;;24.50;13.20;;;;;;;-2.67;87.97;98649.49;218519;1256;140300;-69
2023/11/30 04:35:22;;;;;;;23.90;13.90;;;;;;;-2.63;87.92;98649.81;218081;1254;139978;-71
2023/11/30 04:40:27;;;;;;;24.80;14.30;;;;;;;-2.60;87.93;98650.90;218333;1253;141680;-68
2023/11/30 04:45:32;;;;;;;26.50;13.80;;;;;;;-2.57;88.06;98657.63;218731;1253;140747;-68
2023/11/30 04:50:37;;;;;;;26.80;13.00;;;;;;;-2.53;88.11;98661.83;218924;1253;140177;-68
2023/11/30 04:55:41;;;;;;;23.40;13.50;;;;;;;-2.49;88.23;98659.13;219619;1258;140921;-69
2023/11/30 05:00:47;;;;;;;28.30;15.20;;;;;;;-2.44;88.17;98656.48;219358;1253;140077;-68
2023/11/30 05:05:53;;;;;;;21.00;12.10;;;;;;;-2.39;88.43;98651.66;218478;1257;140149;-68
2023/11/30 05:10:59;;;;;;;28.70;14.20;;;;;;;-2.35;88.38;98643.12;219200;1254;140619;-67
2023/11/30 05:16:05;;;;;;;17.00;12.30;;;;;;;-2.34;88.35;98644.17;220106;1253;141348;-68
2023/11/30 05:21:09;;;;;;;32.80;17.40;;;;;;;-2.34;88.31;98640.53;218307;1253;140067;-66
2023/11/30 05:26:14;;;;;;;29.10;13.90;;;;;;;-2.33;88.19;98638.14;219131;1254;140353;-70
2023/11/30 05:31:19;;;;;;;24.20;12.80;;;;;;;-2.32;88.20;98639.48;219816;1253;140356;-68
2023/11/30 05:36:24;;;;;;;30.50;17.10;;;;;;;-2.33;88.10;98642.59;220870;1253;141394;-68
2023/11/30 05:41:27;;;;;;;26.00;14.50;;;;;;;-2.35;88.09;98640.63;220561;1254;140311;-68
2023/11/30 05:46:32;;;;;;;24.70;14.10;;;;;;;-2.35;87.94;98650.02;220298;1256;141105;-68
2023/11/30 05:51:36;;;;;;;22.60;12.90;;;;;;;-2.36;87.78;98651.05;220663;1256;141392;-68
2023/11/30 05:56:41;;;;;;;29.40;17.10;;;;;;;-2.38;87.92;98652.08;219932;1255;141153;-68
2023/11/30 06:01:46;;;;;;;25.70;14.30;;;;;;;-2.39;87.73;98654.15;219550;1254;140166;-68
2023/11/30 06:06:50;;;;;;;25.10;13.60;;;;;;;-2.43;87.73;98653.84;218662;1256;140152;-67
2023/11/30 06:11:54;;;;;;;29.90;15.20;;;;;;;-2.47;87.74;98661.15;219223;1255;140110;-68
2023/11/30 06:17:00;;;;;;;25.90;15.70;;;;;;;-2.57;87.42;98661.64;218203;1254;231429;-67
2023/11/30 06:22:07;;;;;;;26.60;14.00;;;;;;;-2.63;87.61;98672.21;219415;1254;142558;-67
2023/11/30 06:27:11;;;;;;;28.80;17.30;;;;;;;-2.70;87.67;98672.85;219085;1254;140627;-67
2023/11/30 06:32:17;;;;;;;26.60;15.70;;;;;;;-2.75;87.68;98672.90;218324;1254;140960;-68
2023/11/30 06:37:21;;;;;;;24.20;14.30;;;;;;;-2.84;87.42;98673.31;218303;1255;140013;-67
2023/11/30 06:42:26;;;;;;;27.50;17.00;;;;;;;-2.93;87.44;98677.00;219127;1253;141135;-68
2023/11/30 06:47:32;;;;;;;24.60;14.50;;;;;;;-3.01;87.73;98685.19;218764;1253;141082;-68
2023/11/30 06:52:36;;;;;;;26.70;16.20;;;;;;;-3.08;87.76;98685.05;218376;1253;140071;-67
2023/11/30 06:57:40;;;;;;;23.90;13.30;;;;;;;-3.13;87.97;98692.23;219360;1253;141152;-67
2023/11/30 07:02:45;;;;;;;23.60;13.80;;;;;;;-3.14;88.46;98698.92;218992;1254;139837;-67
2023/11/30 07:07:49;;;;;;;30.90;16.50;;;;;;;-3.09;88.67;98704.09;219050;1253;140097;-68
2023/11/30 07:12:54;;;;;;;23.90;13.80;;;;;;;-3.00;89.01;98712.14;219172;1255;141033;-67
2023/11/30 07:17:59;;;;;;;32.40;18.10;;;;;;;-2.89;89.37;98715.59;219206;1253;139889;-68
2023/11/30 07:23:04;;;;;;;23.10;14.10;;;;;;;-2.77;89.69;98716.88;220682;1253;140665;-67
2023/11/30 07:28:09;;;;;;;32.80;16.80;;;;;;;-2.64;89.82;98721.11;219900;1257;140028;-70
2023/11/30 07:33:14;;;;;;;26.50;15.20;;;;;;;-2.57;89.58;98723.08;220532;1257;140358;-70
2023/11/30 07:38:20;;;;;;;27.60;17.10;;;;;;;-2.48;89.66;98728.50;218796;1253;140887;-69
2023/11/30 07:43:25;;;;;;;36.10;18.00;;;;;;;-2.33;89.91;98729.13;220860;1253;140184;-70
2023/11/30 07:48:30;;;;;;;22.30;14.30;;;;;;;-2.22;89.79;98727.70;218927;1253;140047;-67
2023/11/30 07:53:35;;;;;;;26.20;16.30;;;;;;;-2.13;89.73;98727.50;218962;1253;777641;-67
2023/11/30 07:58:40;;;;;;;27.20;16.20;;;;;;;-2.02;89.79;98729.64;220157;1253;140648;-69
2023/11/30 08:03:46;;;;;;;29.50;17.00;;;;;;;-1.91;89.70;98730.55;219163;1257;139841;-69
2023/11/30 08:08:51;;;;;;;31.00;18.30;;;;;;;-1.85;89.53;98723.48;219498;1254;140242;-69
2023/11/30 08:13:56;;;;;;;27.40;17.10;;;;;;;-1.76;89.71;98717.91;218902;1253;140874;-69
2023/11/30 08:19:02;;;;;;;32.00;17.50;;;;;;;-1.68;89.88;98716.29;217981;1258;139997;-68
2023/11/30 08:24:09;;;;;;;32.70;17.60;;;;;;;-1.62;89.84;98716.13;218780;1253;139820;-69
2023/11/30 08:29:15;;;;;;;26.30;16.90;;;;;;;-1.51;90.15;98712.99;218983;1257;140286;-69
2023/11/30 08:34:20;;;;;;;25.70;15.40;;;;;;;-1.34;90.37;98717.40;218206;1254;139829;-67
2023/11/30 08:39:28;;;;;;;33.90;16.90;;;;;;;-1.19;90.34;98714.38;218984;1254;139859;-67
2023/11/30 08:44:35;;;;;;;30.70;18.60;;;;;;;-1.06;90.04;98718.70;218811;1254;141280;-67
2023/11/30 08:49:40;;;;;;;28.10;15.60;;;;;;;-0.90;90.28;98717.73;219066;1254;141790;-67
2023/11/30 08:54:46;;;;;;;33.10;18.70;;;;;;;-0.79;90.30;98715.27;218871;1257;140123;-66
2023/11/30 08:59:52;;;;;;;34.90;21.00;;;;;;;-0.63;90.03;98717.39;218973;1257;141151;-67
2023/11/30 09:04:56;;;;;;;25.60;15.60;;;;;;;-0.51;90.25;98714.96;219159;1254;140461;-68
2023/11/30 09:10:01;;;;;;;34.10;17.70;;;;;;;-0.38;89.94;98706.51;219559;1259;139950;-70
2023/11/30 09:15:08;;;;;;;24.10;13.80;;;;;;;-0.20;90.04;98707.35;219704;1254;140666;-69
2023/11/30 09:20:14;;;;;;;32.10;17.80;;;;;;;-0.02;89.64;98701.91;219146;1254;140171;-68
2023/11/30 09:25:19;;;;;;;30.00;19.70;;;;;;;0.09;89.72;98699.64;220160;1254;140059;-68
2023/11/30 09:30:24;;;;;;;33.70;18.70;;;;;;;0.21;89.49;98698.10;220360;1254;140119;-70
2023/11/30 09:35:29;;;;;;;29.10;16.30;;;;;;;0.34;89.18;98693.40;220879;1257;140660;-71
2023/11/30 09:40:34;;;;;;;20.40;13.20;;;;;;;0.43;88.90;98690.95;219928;1253;139620;-70
2023/11/30 09:45:38;;;;;;;28.80;17.50;;;;;;;0.56;88.62;98690.59;219588;1258;140077;-70
2023/11/30 09:50:43;;;;;;;28.20;17.60;;;;;;;0.87;88.89;98685.77;220693;1256;139813;-69
2023/11/30 09:55:48;;;;;;;22.60;15.60;;;;;;;1.21;88.94;98679.26;218244;1254;140223;-68
2023/11/30 10:00:53;;;;;;;24.90;15.20;;;;;;;1.38;88.12;98677.02;218791;1258;140044;-69
2023/11/30 10:05:58;;;;;;;19.80;12.60;;;;;;;1.53;87.56;98670.78;218662;1257;139739;-69
2023/11/30 10:11:03;;;;;;;19.00;13.90;;;;;;;1.75;87.85;98670.38;219345;1254;140668;-69
2023/11/30 10:16:10;;;;;;;24.00;14.30;;;;;;;1.84;86.90;98675.65;218246;1254;141781;-68
2023/11/30 10:21:15;;;;;;;21.60;13.90;;;;;;;1.89;86.77;98674.90;218567;1254;139797;-71
2023/11/30 10:26:23;;;;;;;17.70;11.90;;;;;;;1.91;86.58;98673.41;219407;1257;141357;-69
2023/11/30 10:31:29;;;;;;;19.20;13.40;;;;;;;1.79;86.01;98677.89;218209;1254;139559;-69
2023/11/30 10:36:40;;;;;;;17.90;13.30;;;;;;;1.71;86.01;98680.08;218735;1254;140720;-69
2023/11/30 10:41:55;;;;;;;19.90;13.20;;;;;;;1.54;85.33;98680.80;218783;1258;140482;-69
2023/11/30 10:47:01;;;;;;;20.90;12.70;;;;;;;1.40;85.13;98673.94;219466;1254;141906;-70
2023/11/30 10:52:07;;;;;;;22.00;15.00;;;;;;;1.28;85.13;98682.16;218143;1255;139956;-69
2023/11/30 10:57:13;;;;;;;25.00;14.30;;;;;;;1.28;85.16;98678.48;218060;1257;141336;-69
2023/11/30 11:02:18;;;;;;;19.40;13.10;;;;;;;1.23;85.56;98676.54;219907;1254;139670;-68
2023/11/30 11:07:23;;;;;;;23.90;14.00;;;;;;;1.26;85.81;98670.37;218216;1257;140900;-69
2023/11/30 11:12:37;;;;;;;24.30;15.10;;;;;;;1.35;85.86;98666.66;219652;1254;140074;-69
2023/11/30 11:17:53;;;;;;;23.40;14.20;;;;;;;1.42;85.94;98662.59;218563;1254;139992;-68
2023/11/30 11:23:04;;;;;;;23.60;15.70;;;;;;;1.46;85.73;98660.77;218096;1255;139548;-67
2023/11/30 11:28:11;;;;;;;22.30;14.70;;;;;;;1.45;85.42;98656.08;220639;1254;140316;-71
2023/11/30 11:33:18;;;;;;;22.90;15.00;;;;;;;1.41;85.37;98653.02;220153;1254;140268;-71
2023/11/30 11:38:25;;;;;;;;;;;;;;;1.33;85.14;98644.32;220830;1257;140357;-71
2023/11/30 11:43:29;;;;;;;21.90;14.20;;;;;;;1.33;85.50;98646.25;220965;1253;126533;-70
2023/11/30 11:48:34;;;;;;;28.60;16.20;;;;;;;1.36;85.17;98650.98;220025;1254;140796;-72
2023/11/30 11:53:42;;;;;;;24.00;14.20;;;;;;;1.38;85.12;98651.11;219567;1254;140184;-69
2023/11/30 11:58:47;;;;;;;;;;;;;;;1.37;85.15;98646.79;219457;1254;140584;-70
2023/11/30 12:03:52;;;;;;;25.30;14.60;;;;;;;1.39;85.23;98648.05;219091;1254;126135;-71
2023/11/30 12:09:07;;;;;;;26.80;14.70;;;;;;;1.47;85.24;98653.10;217865;1257;140271;-68
2023/11/30 12:14:16;;;;;;;26.10;15.40;;;;;;;1.58;85.35;98644.83;218960;1254;141644;-68
2023/11/30 12:19:22;;;;;;;24.70;14.00;;;;;;;1.73;85.31;98643.86;219316;1254;140740;-70
2023/11/30 12:24:28;;;;;;;23.70;14.90;;;;;;;1.80;85.30;98642.92;218969;1254;140535;-68
2023/11/30 12:29:35;;;;;;;23.30;15.00;;;;;;;1.73;84.77;98641.02;219229;1254;234896;-68
2023/11/30 12:34:40;;;;;;;22.50;15.20;;;;;;;1.61;84.37;98641.67;218505;1254;221769;-67
2023/11/30 12:39:46;;;;;;;23.90;15.60;;;;;;;1.56;84.64;98636.55;218638;1253;141197;-68
2023/11/30 12:44:51;;;;;;;26.60;14.70;;;;;;;1.53;84.58;98631.39;218243;1254;140088;-68
2023/11/30 12:49:58;;;;;;;29.70;15.60;;;;;;;1.48;84.39;98626.67;218148;1254;140924;-69
2023/11/30 12:55:06;;;;;;;25.50;16.30;;;;;;;1.41;84.56;98623.60;218794;1254;140404;-68
2023/11/30 13:00:16;;;;;;;22.80;14.20;;;;;;;1.37;84.71;98619.80;218040;1253;140650;-69
2023/11/30 13:05:22;;;;;;;29.80;18.30;;;;;;;1.29;84.79;98611.88;219522;1254;139965;-69
2023/11/30 13:10:28;;;;;;;27.90;16.20;;;;;;;1.26;84.64;98605.86;218608;1254;140125;-69
2023/11/30 13:15:32;;;;;;;21.40;14.20;;;;;;;1.22;84.53;98600.21;219269;1253;140432;-69
2023/11/30 13:20:37;;;;;;;26.80;17.70;;;;;;;1.17;84.53;98597.52;220913;1254;140575;-70
2023/11/30 13:25:44;;;;;;;25.70;17.10;;;;;;;1.15;84.80;98595.50;220738;1254;141688;-72
2023/11/30 13:30:51;;;;;;;34.20;19.40;;;;;;;1.12;84.75;98587.14;220812;1253;140687;-72
2023/11/30 13:35:55;;;;;;;28.60;17.20;;;;;;;1.10;84.77;98582.58;220775;1253;141053;-72
2023/11/30 13:41:01;;;;;;;25.90;14.30;;;;;;;1.07;85.04;98577.98;220301;1254;140282;-70
2023/11/30 13:46:12;;;;;;;27.90;18.00;;;;;;;1.06;84.52;98584.23;218935;1254;140410;-70
2023/11/30 13:51:20;;;;;;;34.80;19.40;;;;;;;1.05;84.90;98591.13;219414;1254;139700;-70
2023/11/30 13:56:26;;;;;;;27.90;18.60;;;;;;;1.01;84.90;98591.54;218594;1254;140959;-71
2023/11/30 14:01:32;;;;;;;33.70;18.60;;;;;;;0.96;84.58;98589.62;218327;1257;139526;-71
2023/11/30 14:06:37;;;;;;;33.70;18.90;;;;;;;0.91;85.08;98591.00;219205;1254;139863;-70
2023/11/30 14:11:44;;;;;;;34.40;20.30;;;;;;;0.84;85.07;98596.90;218720;1253;140083;-68
2023/11/30 14:16:50;;;;;;;34.40;21.50;;;;;;;0.75;84.90;98598.80;218831;1254;140955;-72
2023/11/30 14:21:58;;;;;;;34.40;19.10;;;;;;;0.66;85.09;98592.09;219330;1253;140097;-71
2023/11/30 14:27:06;;;;;;;36.70;19.30;;;;;;;0.59;85.24;98593.42;218234;1253;139711;-71
2023/11/30 14:32:11;;;;;;;33.60;19.50;;;;;;;0.50;85.47;98597.71;217811;1257;140526;-70
2023/11/30 14:37:21;;;;;;;33.50;20.10;;;;;;;0.44;85.34;98602.00;218322;1253;230799;-71
2023/11/30 14:42:27;;;;;;;33.50;18.80;;;;;;;0.36;85.41;98599.84;218310;1253;229403;-71
2023/11/30 14:47:38;;;;;;;35.50;21.20;;;;;;;0.29;85.34;98596.40;219553;1253;139888;-71
2023/11/30 14:52:44;;;;;;;31.40;19.80;;;;;;;0.21;85.44;98597.79;218128;1253;139789;-68
2023/11/30 14:57:50;;;;;;;39.60;22.20;;;;;;;0.15;85.79;98595.50;218536;1257;140759;-70
2023/11/30 15:02:56;;;;;;;38.20;21.40;;;;;;;0.11;86.05;98587.86;218081;1254;140520;-70
2023/11/30 15:08:02;;;;;;;39.50;23.90;;;;;;;0.06;86.14;98577.23;218350;1254;140118;-71
2023/11/30 15:13:11;;;;;;;44.00;25.00;;;;;;;0.02;86.02;98575.60;218817;1253;140670;-71
2023/11/30 15:18:32;;;;;;;48.10;26.60;;;;;;;0.01;86.21;98584.27;219173;1254;141528;-73
2023/11/30 15:23:38;;;;;;;45.40;27.50;;;;;;;-0.01;86.30;98593.06;218689;1256;140737;-73
2023/11/30 15:28:43;;;;;;;51.10;28.60;;;;;;;-0.01;86.41;98602.30;218324;1254;139765;-70
2023/11/30 15:33:50;;;;;;;58.30;29.40;;;;;;;-0.03;86.26;98600.48;219725;1257;139860;-71
2023/11/30 15:39:02;;;;;;;48.90;26.30;;;;;;;-0.05;86.51;98600.23;218899;1253;140689;-75
2023/11/30 15:44:08;;;;;;;60.00;28.20;;;;;;;-0.10;86.32;98596.48;218621;1257;140576;-75
2023/11/30 15:49:14;;;;;;;61.80;32.30;;;;;;;-0.12;86.97;98590.83;218330;1254;140271;-77
2023/11/30 15:54:20;;;;;;;54.60;31.20;;;;;;;-0.14;86.56;98596.66;219575;1253;139857;-73
2023/11/30 15:59:24;;;;;;;58.10;30.70;;;;;;;-0.16;86.73;98602.61;218947;1253;140729;-77
2023/11/30 16:04:30;;;;;;;61.80;31.40;;;;;;;-0.20;86.77;98603.27;219182;1253;140146;-76
2023/11/30 16:09:35;;;;;;;42.20;23.80;;;;;;;-0.24;86.96;98596.63;218572;1253;141056;-72
2023/11/30 16:14:41;;;;;;;40.50;23.80;;;;;;;-0.29;86.97;98596.05;218405;1254;140647;-72
2023/11/30 16:19:47;;;;;;;51.90;27.10;;;;;;;-0.32;86.98;98599.16;219435;1253;139833;-71
2023/11/30 16:24:51;;;;;;;35.30;19.30;;;;;;;-0.29;87.22;98598.59;218247;1254;141419;-72
2023/11/30 16:29:56;;;;;;;40.00;23.70;;;;;;;-0.31;87.15;98593.55;218783;1253;141223;-69
2023/11/30 16:35:05;;;;;;;43.70;21.40;;;;;;;-0.32;87.16;98595.77;218074;1253;140019;-72
2023/11/30 16:40:10;;;;;;;46.70;23.30;;;;;;;-0.33;87.39;98587.30;218238;1253;140232;-73
2023/11/30 16:45:17;;;;;;;36.60;20.40;;;;;;;-0.34;87.41;98583.06;219093;1253;140607;-71
2023/11/30 16:50:22;;;;;;;51.20;28.60;;;;;;;-0.40;87.31;98586.57;218093;1254;140393;-72
2023/11/30 16:55:26;;;;;;;70.30;35.70;;;;;;;-0.42;87.18;98583.81;217885;1253;140353;-73
2023/11/30 17:00:31;;;;;;;60.30;31.40;;;;;;;-0.47;86.84;98579.35;218532;1253;140765;-72
2023/11/30 17:05:39;;;;;;;55.80;30.90;;;;;;;-0.56;86.90;98582.10;218799;1253;139832;-73
2023/11/30 17:10:45;;;;;;;42.40;23.50;;;;;;;-0.61;87.37;98584.38;219630;1253;139905;-78
2023/11/30 17:15:49;;;;;;;43.40;25.20;;;;;;;-0.66;87.16;98576.42;219902;1253;142181;-78
2023/11/30 17:20:54;;;;;;;41.00;23.80;;;;;;;-0.71;86.98;98571.56;219701;1254;140809;-74
2023/11/30 17:25:59;;;;;;;46.90;24.80;;;;;;;-0.72;87.19;98576.66;220667;1253;140126;-78
2023/11/30 17:31:04;;;;;;;38.80;22.20;;;;;;;-0.71;87.34;98577.71;220177;1255;140174;-75
2023/11/30 17:36:11;;;;;;;52.70;26.90;;;;;;;-0.67;87.51;98578.86;219927;1253;140771;-76
2023/11/30 17:41:16;;;;;;;63.70;32.00;;;;;;;-0.70;87.60;98578.40;218177;1254;140374;-76
2023/11/30 17:46:21;;;;;;;58.90;33.60;;;;;;;-0.70;87.40;98577.77;219256;1254;139786;-76
2023/11/30 17:51:30;;;;;;;55.90;27.60;;;;;;;-0.72;87.39;98590.95;218525;1254;140301;-68
2023/11/30 17:56:39;;;;;;;40.00;21.10;;;;;;;-0.79;87.53;98596.13;218563;1254;140565;-71
2023/11/30 18:01:44;;;;;;;44.60;25.20;;;;;;;-0.89;87.19;98589.80;218405;1254;140729;-69
2023/11/30 18:06:48;;;;;;;49.40;26.40;;;;;;;-0.94;87.36;98591.31;219069;1254;140297;-71
2023/11/30 18:11:53;;;;;;;51.10;27.20;;;;;;;-0.94;87.61;98592.36;218415;1256;140706;-70
2023/11/30 18:17:02;;;;;;;40.20;21.10;;;;;;;-0.94;87.89;98593.23;217983;1254;142154;-70
2023/11/30 18:22:07;;;;;;;46.50;24.10;;;;;;;-0.98;87.78;98585.28;217823;1254;140191;-68
2023/11/30 18:27:13;;;;;;;54.50;26.90;;;;;;;-0.99;88.00;98582.05;217834;1254;141300;-68
2023/11/30 18:32:18;;;;;;;44.30;24.30;;;;;;;-0.99;88.16;98581.73;217943;1254;141591;-67
2023/11/30 18:37:23;;;;;;;47.20;22.20;;;;;;;-1.00;88.27;98583.41;219093;1254;139807;-67
2023/11/30 18:42:28;;;;;;;46.30;24.90;;;;;;;-1.04;87.89;98579.55;218027;1257;141079;-70
2023/11/30 18:47:37;;;;;;;54.20;27.40;;;;;;;-1.06;88.20;98570.65;218195;1253;140176;-66
2023/11/30 18:52:45;;;;;;;45.20;25.50;;;;;;;-1.00;88.38;98558.10;218188;1253;140583;-66
2023/11/30 18:57:52;;;;;;;54.90;28.10;;;;;;;-0.98;88.34;98548.17;218722;1253;139864;-69
2023/11/30 19:02:59;;;;;;;97.30;34.40;;;;;;;-0.99;88.72;98548.61;217770;1257;139853;-68
2023/11/30 19:08:04;;;;;;;65.10;38.80;;;;;;;-0.97;88.84;98547.30;219058;1253;139901;-68
2023/11/30 19:13:08;;;;;;;86.60;43.80;;;;;;;-0.95;88.90;98536.97;219394;1253;141337;-69
2023/11/30 19:18:12;;;;;;;73.20;37.90;;;;;;;-0.91;89.11;98540.16;217780;1253;140665;-69
2023/11/30 19:23:17;;;;;;;91.80;46.20;;;;;;;-0.93;88.62;98534.09;220926;1253;140605;-69
2023/11/30 19:28:20;;;;;;;93.90;47.00;;;;;;;-0.94;88.80;98532.88;219101;1253;141268;-68
2023/11/30 19:33:24;;;;;;;91.60;48.80;;;;;;;-0.90;88.98;98530.35;220890;1254;140173;-69
2023/11/30 19:38:29;;;;;;;115.30;53.00;;;;;;;-0.85;89.15;98521.73;219112;1253;140502;-68
2023/11/30 19:43:34;;;;;;;129.60;56.30;;;;;;;-0.90;88.52;98515.34;220128;1256;141081;-70
2023/11/30 19:48:40;;;;;;;159.80;72.50;;;;;;;-0.90;88.66;98516.42;218109;1253;140834;-68
2023/11/30 19:53:46;;;;;;;141.60;63.70;;;;;;;-0.88;88.95;98523.19;217344;1253;886049;-66
2023/11/30 19:58:51;;;;;;;94.40;47.60;;;;;;;-0.87;89.06;98537.36;218570;1254;140665;-66
2023/11/30 20:03:58;;;;;;;102.70;53.80;;;;;;;-0.90;88.96;98545.04;218294;1257;139914;-67
2023/11/30 20:09:03;;;;;;;99.70;51.70;;;;;;;-0.88;89.17;98545.16;218583;1256;140353;-68
2023/11/30 20:14:08;;;;;;;81.10;42.70;;;;;;;-0.87;89.46;98547.23;217722;1253;140241;-68
2023/11/30 20:19:14;;;;;;;86.70;47.80;;;;;;;-0.88;89.13;98541.02;218037;1255;140375;-69
2023/11/30 20:24:18;;;;;;;85.00;46.60;;;;;;;-0.86;89.62;98534.48;217993;1255;140353;-67
2023/11/30 20:29:26;;;;;;;92.10;48.10;;;;;;;-0.86;89.40;98532.07;217969;1256;140298;-65
2023/11/30 20:34:31;;;;;;;86.70;45.10;;;;;;;-0.84;89.50;98526.09;218299;1256;140407;-67
2023/11/30 20:39:36;;;;;;;104.90;54.00;;;;;;;-0.86;89.16;98528.45;218083;1254;210713;-66
2023/11/30 20:44:43;;;;;;;90.90;51.30;;;;;;;-0.84;89.48;98530.80;218567;1253;140424;-68
2023/11/30 20:49:51;;;;;;;98.80;51.00;;;;;;;-0.83;89.37;98528.46;217883;1257;140796;-66
2023/11/30 20:54:55;;;;;;;101.40;52.50;;;;;;;-0.86;89.28;98524.66;219566;1255;139981;-69
2023/11/30 21:00:03;;;;;;;110.60;59.70;;;;;;;-0.87;89.48;98524.77;219030;1253;140352;-72
2023/11/30 21:05:10;;;;;;;107.20;60.40;;;;;;;-0.84;89.55;98521.73;219213;1253;140322;-69
2023/11/30 21:10:14;;;;;;;104.10;55.70;;;;;;;-0.80;89.58;98522.21;220773;1253;139877;-69
2023/11/30 21:15:19;;;;;;;111.40;53.20;;;;;;;-0.78;89.48;98519.16;219700;1257;153580;-71
2023/11/30 21:20:24;;;;;;;89.40;49.70;;;;;;;-0.77;89.59;98517.48;218090;1253;140411;-70
2023/11/30 21:25:30;;;;;;;90.50;49.80;;;;;;;-0.79;89.22;98517.67;218545;1256;141469;-69
2023/11/30 21:30:34;;;;;;;97.90;51.90;;;;;;;-0.81;89.45;98519.50;219721;1254;164790;-71
2023/11/30 21:35:40;;;;;;;96.30;50.50;;;;;;;-0.81;89.67;98526.39;219174;1253;139962;-71
2023/11/30 21:40:45;;;;;;;94.40;49.30;;;;;;;-0.80;89.25;98530.91;218985;1257;141884;-68
2023/11/30 21:45:49;;;;;;;92.60;48.60;;;;;;;-0.81;89.39;98529.25;219248;1255;141511;-69
2023/11/30 21:50:53;;;;;;;95.40;50.80;;;;;;;-0.80;89.44;98538.43;218787;1257;140478;-73
2023/11/30 21:55:57;;;;;;;86.30;47.80;;;;;;;-0.81;89.21;98531.21;218250;1257;139905;-71
2023/11/30 22:01:04;;;;;;;96.80;48.50;;;;;;;-0.82;89.42;98538.90;219709;1253;140001;-73
2023/11/30 22:06:10;;;;;;;97.90;50.60;;;;;;;-0.78;89.78;98546.02;218340;1258;140557;-68
2023/11/30 22:11:14;;;;;;;99.40;49.80;;;;;;;-0.75;89.69;98550.86;218206;1253;140035;-70
2023/11/30 22:16:20;;;;;;;85.40;46.30;;;;;;;-0.77;89.81;98545.46;218681;1256;141200;-69
2023/11/30 22:21:36;;;;;;;85.70;48.10;;;;;;;-0.77;89.69;98539.42;218277;1253;139745;-68
2023/11/30 22:26:43;;;;;;;79.60;42.30;;;;;;;-0.78;89.69;98531.64;218247;1254;139910;-67
2023/11/30 22:31:48;;;;;;;77.70;43.50;;;;;;;-0.82;89.34;98530.38;218159;1257;140458;-68
2023/11/30 22:36:52;;;;;;;78.90;44.20;;;;;;;-0.87;89.20;98535.40;217855;1254;139848;-68
2023/11/30 22:41:58;;;;;;;68.90;38.60;;;;;;;-0.96;88.99;98532.45;218512;1253;140227;-71
2023/11/30 22:47:02;;;;;;;77.70;40.80;;;;;;;-1.04;88.88;98528.13;218028;1259;140486;-72
2023/11/30 22:52:06;;;;;;;71.60;41.30;;;;;;;-1.08;89.16;98525.04;219243;1253;140031;-75
2023/11/30 22:57:10;;;;;;;78.60;46.00;;;;;;;-1.13;89.31;98520.66;218178;1255;140691;-68
2023/11/30 23:02:14;;;;;;;68.30;39.20;;;;;;;-1.19;89.23;98519.48;218674;1257;141066;-74